createdAt,value
2023-03-23T15:58:11.612Z,49.08
2023-03-23T16:00:40.576Z,49.12
2023-03-23T16:03:12.879Z,49.14
2023-03-23T16:05:39.922Z,49.28
2023-03-23T16:08:11.439Z,49.43
2023-03-23T16:10:38.465Z,49.25
2023-03-23T16:13:06.402Z,49.36
2023-03-23T16:15:36.227Z,49.63
2023-03-23T16:18:03.699Z,49.48
2023-03-23T16:20:33.321Z,49.50
2023-03-23T16:23:01.344Z,49.55
2023-03-23T16:25:28.210Z,49.64
2023-03-23T16:27:55.133Z,49.76
2023-03-23T16:30:25.386Z,49.75
2023-03-23T16:32:55.423Z,49.80
2023-03-23T16:35:24.283Z,50.09
2023-03-23T16:38:07.217Z,49.78
2023-03-23T16:40:39.011Z,49.89
2023-03-23T16:43:08.340Z,49.86
2023-03-23T16:45:39.684Z,49.93
2023-03-23T16:48:09.093Z,50.10
2023-03-23T16:50:37.488Z,50.22
2023-03-23T16:53:06.841Z,50.12
2023-03-23T16:55:35.222Z,50.09
2023-03-23T16:58:15.364Z,50.27
2023-03-23T17:00:45.665Z,50.31
2023-03-23T17:03:13.595Z,50.43
2023-03-23T17:05:41.290Z,50.34
2023-03-23T17:08:08.636Z,50.56
2023-03-23T17:10:38.767Z,50.62
2023-03-23T17:13:05.787Z,50.52
2023-03-23T17:15:32.785Z,50.92
2023-03-23T17:17:59.753Z,50.84
2023-03-23T17:20:26.704Z,50.98
2023-03-23T17:22:53.733Z,50.93
2023-03-23T17:25:21.019Z,50.73
2023-03-23T17:27:47.901Z,50.94
2023-03-23T17:30:14.792Z,51.04
2023-03-23T17:32:41.688Z,51.26
2023-03-23T17:35:09.850Z,51.22
2023-03-23T17:37:38.221Z,51.24
2023-03-23T17:40:10.376Z,51.18
2023-03-23T17:42:38.669Z,51.40
2023-03-23T17:45:07.904Z,51.44
2023-03-23T17:47:34.923Z,51.39
2023-03-23T17:50:11.422Z,51.49
2023-03-23T17:52:40.689Z,51.61
2023-03-23T17:55:08.494Z,51.63
2023-03-23T17:57:36.303Z,51.63
2023-03-23T18:00:07.622Z,51.85
2023-03-23T18:02:36.528Z,52.05
2023-03-23T18:05:03.643Z,52.09
2023-03-23T18:07:30.550Z,52.03
2023-03-23T18:10:01.295Z,51.85
2023-03-23T18:12:28.351Z,52.16
2023-03-23T18:14:58.904Z,52.32
2023-03-23T18:17:26.966Z,52.37
2023-03-23T18:19:55.606Z,52.48
2023-03-23T18:22:22.649Z,52.63
2023-03-23T18:24:50.055Z,52.77
2023-03-23T18:27:17.481Z,52.77
2023-03-23T18:29:44.507Z,52.88
2023-03-23T18:32:12.263Z,52.84
2023-03-23T18:34:41.805Z,52.79
2023-03-23T18:37:09.598Z,52.87
2023-03-23T18:39:38.169Z,52.88
2023-03-23T18:42:06.886Z,53.09
2023-03-23T18:44:34.060Z,53.02
2023-03-23T18:47:01.379Z,53.17
2023-03-23T18:49:29.304Z,53.19
2023-03-23T18:51:57.068Z,53.13
2023-03-23T18:54:24.153Z,53.23
2023-03-23T18:56:52.084Z,53.31
2023-03-23T18:59:19.296Z,53.49
2023-03-23T19:01:46.666Z,53.62
2023-03-23T19:04:14.806Z,53.44
2023-03-23T19:06:41.840Z,53.60
2023-03-23T19:09:09.267Z,53.78
2023-03-23T19:11:36.307Z,53.80
2023-03-23T19:14:03.742Z,53.64
2023-03-23T19:16:34.228Z,53.75
2023-03-23T19:19:03.087Z,53.78
2023-03-23T19:21:31.912Z,53.90
2023-03-23T19:24:00.935Z,54.03
2023-03-23T19:26:43.567Z,54.10
2023-03-23T19:31:46.158Z,54.14
2023-03-23T19:34:14.078Z,54.12
2023-03-23T19:36:41.248Z,54.05
2023-03-23T19:39:09.021Z,54.10
2023-03-23T19:41:37.157Z,54.17
2023-03-23T19:44:04.817Z,54.13
2023-03-23T19:46:32.818Z,54.11
2023-03-23T19:49:00.396Z,54.04
2023-03-23T19:51:28.546Z,54.34
2023-03-23T19:53:57.546Z,54.20
2023-03-23T19:56:25.342Z,54.33
2023-03-23T19:58:52.806Z,54.15
2023-03-23T20:01:20.316Z,54.18
2023-03-23T20:03:47.711Z,54.29
2023-03-23T20:06:15.567Z,54.20
2023-03-23T20:08:45.803Z,54.20
2023-03-23T20:11:16.181Z,54.24
2023-03-23T20:13:46.077Z,54.27
2023-03-23T20:16:13.134Z,54.35
2023-03-23T20:18:41.145Z,54.38
2023-03-23T20:21:17.373Z,54.42
2023-03-23T20:23:46.871Z,54.15
2023-03-23T20:26:41.308Z,54.34
2023-03-23T20:29:08.443Z,54.50
2023-03-23T20:31:40.450Z,54.50
2023-03-23T20:34:13.561Z,54.32
2023-03-23T20:36:45.394Z,54.54
2023-03-23T20:39:21.578Z,54.53
2023-03-23T20:41:51.014Z,54.57
2023-03-23T20:44:20.138Z,54.67
2023-03-23T20:46:48.808Z,54.58
2023-03-23T20:49:17.990Z,54.62
2023-03-23T20:51:46.700Z,54.76
2023-03-23T20:54:16.067Z,54.68
2023-03-23T20:56:44.696Z,54.61
2023-03-23T20:59:13.455Z,54.54
2023-03-23T21:01:40.704Z,54.62
2023-03-23T21:04:15.475Z,54.68
2023-03-23T21:06:49.166Z,54.63
2023-03-23T21:09:17.604Z,54.82
2023-03-23T21:11:45.640Z,54.74
2023-03-23T21:14:16.587Z,54.92
2023-03-23T21:16:44.328Z,54.97
2023-03-23T21:19:12.279Z,55.06
2023-03-23T21:21:55.185Z,54.95
2023-03-23T21:24:32.210Z,55.13
2023-03-23T21:27:03.151Z,55.14
2023-03-23T21:29:31.093Z,55.01
2023-03-23T21:32:08.190Z,55.13
2023-03-23T21:34:37.570Z,55.10
2023-03-23T21:37:05.417Z,55.18
2023-03-23T21:39:33.766Z,55.33
2023-03-23T21:42:03.014Z,55.36
2023-03-23T21:44:35.148Z,55.23
2023-03-23T21:47:03.160Z,55.42
2023-03-23T21:49:31.849Z,55.69
2023-03-23T21:51:58.908Z,55.54
2023-03-23T21:54:30.261Z,55.72
2023-03-23T21:56:59.161Z,55.76
2023-03-23T21:59:27.611Z,55.83
2023-03-23T22:01:55.169Z,55.58
2023-03-23T22:04:22.368Z,55.59
2023-03-23T22:06:49.967Z,55.71
2023-03-23T22:09:17.798Z,55.84
2023-03-23T22:11:44.744Z,56.04
2023-03-23T22:14:12.413Z,55.87
2023-03-23T22:16:39.503Z,55.84
2023-03-23T22:19:06.859Z,56.02
2023-03-23T22:21:33.809Z,55.99
2023-03-23T22:24:02.244Z,55.96
2023-03-23T22:26:30.501Z,56.01
2023-03-23T22:28:59.420Z,55.97
2023-03-23T22:31:29.588Z,55.85
2023-03-23T22:33:57.659Z,56.20
2023-03-23T22:36:26.453Z,56.07
2023-03-23T22:38:55.280Z,56.02
2023-03-23T22:41:28.705Z,56.10
2023-03-23T22:43:55.968Z,56.28
2023-03-23T22:46:24.570Z,56.21
2023-03-23T22:48:52.022Z,56.34
2023-03-23T22:51:20.413Z,56.23
2023-03-23T22:53:48.095Z,56.27
2023-03-23T22:56:15.660Z,56.49
2023-03-23T22:58:46.803Z,56.50
2023-03-23T23:01:17.465Z,56.45
2023-03-23T23:03:45.024Z,56.33
2023-03-23T23:06:14.199Z,56.54
2023-03-23T23:08:41.846Z,56.61
2023-03-23T23:11:11.485Z,56.55
2023-03-23T23:13:39.769Z,56.66
2023-03-23T23:16:07.714Z,56.64
2023-03-23T23:18:36.236Z,56.72
2023-03-23T23:21:08.663Z,56.87
2023-03-23T23:23:36.602Z,56.84
2023-03-23T23:26:04.851Z,56.97
2023-03-23T23:28:32.246Z,57.04
2023-03-23T23:30:59.762Z,56.88
2023-03-23T23:33:27.661Z,57.00
2023-03-23T23:35:55.064Z,57.00
2023-03-23T23:38:22.245Z,57.02
2023-03-23T23:40:49.634Z,57.27
2023-03-23T23:43:17.423Z,57.13
2023-03-23T23:45:44.552Z,56.99
2023-03-23T23:48:12.840Z,57.12
2023-03-23T23:50:40.038Z,57.11
2023-03-23T23:53:06.949Z,57.11
2023-03-23T23:55:33.904Z,57.26
2023-03-23T23:58:00.861Z,57.16
